sensor_id;sensor_type;location;lat;lon;timestamp;P1;durP1;ratioP1;P2;durP2;ratioP2
77880;SDS011;67077;50.298;18.996;2023-03-14T00:01:58;5.80;;;3.10;;
77880;SDS011;67077;50.298;18.996;2023-03-14T00:04:26;6.70;;;3.20;;
77880;SDS011;67077;50.298;18.996;2023-03-14T00:06:56;7.30;;;3.00;;
77880;SDS011;67077;50.298;18.996;2023-03-14T00:09:22;8.30;;;3.20;;
77880;SDS011;67077;50.298;18.996;2023-03-14T00:11:50;7.20;;;3.00;;
77880;SDS011;67077;50.298;18.996;2023-03-14T00:14:18;6.50;;;3.10;;
77880;SDS011;67077;50.298;18.996;2023-03-14T00:17:00;7.70;;;3.00;;
77880;SDS011;67077;50.298;18.996;2023-03-14T00:19:31;7.20;;;3.10;;
77880;SDS011;67077;50.298;18.996;2023-03-14T00:21:58;8.10;;;3.30;;
77880;SDS011;67077;50.298;18.996;2023-03-14T00:24:28;6.40;;;3.20;;
77880;SDS011;67077;50.298;18.996;2023-03-14T00:27:04;8.10;;;3.70;;
77880;SDS011;67077;50.298;18.996;2023-03-14T00:29:31;8.50;;;3.40;;
77880;SDS011;67077;50.298;18.996;2023-03-14T00:32:08;8.20;;;3.40;;
77880;SDS011;67077;50.298;18.996;2023-03-14T00:34:54;7.30;;;3.40;;
77880;SDS011;67077;50.298;18.996;2023-03-14T00:37:27;9.00;;;3.70;;
77880;SDS011;67077;50.298;18.996;2023-03-14T00:39:57;6.70;;;3.20;;
77880;SDS011;67077;50.298;18.996;2023-03-14T00:42:25;6.00;;;3.20;;
77880;SDS011;67077;50.298;18.996;2023-03-14T00:44:55;7.30;;;3.20;;
77880;SDS011;67077;50.298;18.996;2023-03-14T00:47:23;7.50;;;3.40;;
77880;SDS011;67077;50.298;18.996;2023-03-14T00:49:50;7.10;;;3.80;;
77880;SDS011;67077;50.298;18.996;2023-03-14T00:52:17;8.60;;;3.50;;
77880;SDS011;67077;50.298;18.996;2023-03-14T00:54:44;9.60;;;3.80;;
77880;SDS011;67077;50.298;18.996;2023-03-14T00:57:11;9.90;;;3.60;;
77880;SDS011;67077;50.298;18.996;2023-03-14T00:59:40;8.10;;;3.40;;
77880;SDS011;67077;50.298;18.996;2023-03-14T01:02:07;7.10;;;3.40;;
77880;SDS011;67077;50.298;18.996;2023-03-14T01:04:33;8.40;;;3.60;;
77880;SDS011;67077;50.298;18.996;2023-03-14T01:07:01;8.30;;;3.30;;
77880;SDS011;67077;50.298;18.996;2023-03-14T01:09:27;7.20;;;3.20;;
77880;SDS011;67077;50.298;18.996;2023-03-14T01:11:54;6.80;;;3.00;;
77880;SDS011;67077;50.298;18.996;2023-03-14T01:14:21;9.00;;;3.40;;
77880;SDS011;67077;50.298;18.996;2023-03-14T01:16:47;7.70;;;3.40;;
77880;SDS011;67077;50.298;18.996;2023-03-14T01:19:14;8.10;;;3.40;;
77880;SDS011;67077;50.298;18.996;2023-03-14T01:21:41;6.70;;;3.00;;
77880;SDS011;67077;50.298;18.996;2023-03-14T01:24:10;5.60;;;3.10;;
77880;SDS011;67077;50.298;18.996;2023-03-14T01:26:52;5.60;;;2.90;;
77880;SDS011;67077;50.298;18.996;2023-03-14T01:29:23;6.50;;;3.30;;
77880;SDS011;67077;50.298;18.996;2023-03-14T01:31:51;7.70;;;3.30;;
77880;SDS011;67077;50.298;18.996;2023-03-14T01:39:54;8.30;;;3.50;;
77880;SDS011;67077;50.298;18.996;2023-03-14T01:42:22;7.90;;;3.60;;
77880;SDS011;67077;50.298;18.996;2023-03-14T01:47:38;7.50;;;3.40;;
77880;SDS011;67077;50.298;18.996;2023-03-14T01:50:09;8.70;;;3.20;;
77880;SDS011;67077;50.298;18.996;2023-03-14T01:52:49;5.50;;;3.00;;
77880;SDS011;67077;50.298;18.996;2023-03-14T01:55:23;7.20;;;3.30;;
77880;SDS011;67077;50.298;18.996;2023-03-14T01:57:54;8.00;;;3.40;;
77880;SDS011;67077;50.298;18.996;2023-03-14T02:00:28;5.70;;;3.00;;
77880;SDS011;67077;50.298;18.996;2023-03-14T02:02:58;5.80;;;3.00;;
77880;SDS011;67077;50.298;18.996;2023-03-14T02:05:30;6.00;;;3.10;;
77880;SDS011;67077;50.298;18.996;2023-03-14T02:08:00;5.40;;;3.00;;
77880;SDS011;67077;50.298;18.996;2023-03-14T02:10:32;7.20;;;3.10;;
77880;SDS011;67077;50.298;18.996;2023-03-14T02:13:04;7.20;;;3.60;;
77880;SDS011;67077;50.298;18.996;2023-03-14T02:15:36;7.40;;;2.90;;
77880;SDS011;67077;50.298;18.996;2023-03-14T02:18:05;6.70;;;3.60;;
77880;SDS011;67077;50.298;18.996;2023-03-14T02:26:27;14.40;;;5.50;;
77880;SDS011;67077;50.298;18.996;2023-03-14T02:29:02;16.50;;;5.80;;
77880;SDS011;67077;50.298;18.996;2023-03-14T02:31:31;10.70;;;4.80;;
77880;SDS011;67077;50.298;18.996;2023-03-14T02:34:01;7.00;;;3.60;;
77880;SDS011;67077;50.298;18.996;2023-03-14T02:36:31;7.40;;;3.80;;
77880;SDS011;67077;50.298;18.996;2023-03-14T02:41:54;8.70;;;3.70;;
77880;SDS011;67077;50.298;18.996;2023-03-14T02:44:22;7.50;;;3.40;;
77880;SDS011;67077;50.298;18.996;2023-03-14T02:46:51;8.00;;;3.50;;
77880;SDS011;67077;50.298;18.996;2023-03-14T02:49:37;7.00;;;2.90;;
77880;SDS011;67077;50.298;18.996;2023-03-14T02:52:10;6.70;;;3.10;;
77880;SDS011;67077;50.298;18.996;2023-03-14T02:54:37;6.60;;;2.90;;
77880;SDS011;67077;50.298;18.996;2023-03-14T02:57:04;5.30;;;2.70;;
77880;SDS011;67077;50.298;18.996;2023-03-14T02:59:32;7.10;;;3.20;;
77880;SDS011;67077;50.298;18.996;2023-03-14T03:01:59;9.40;;;3.40;;
77880;SDS011;67077;50.298;18.996;2023-03-14T03:04:30;7.30;;;3.40;;
77880;SDS011;67077;50.298;18.996;2023-03-14T03:06:59;6.40;;;3.20;;
77880;SDS011;67077;50.298;18.996;2023-03-14T03:09:29;6.80;;;3.10;;
77880;SDS011;67077;50.298;18.996;2023-03-14T03:11:57;5.50;;;3.10;;
77880;SDS011;67077;50.298;18.996;2023-03-14T03:14:27;7.90;;;3.40;;
77880;SDS011;67077;50.298;18.996;2023-03-14T03:16:56;6.90;;;3.20;;
77880;SDS011;67077;50.298;18.996;2023-03-14T03:19:24;7.50;;;3.20;;
77880;SDS011;67077;50.298;18.996;2023-03-14T03:21:52;5.60;;;3.20;;
77880;SDS011;67077;50.298;18.996;2023-03-14T03:24:20;5.00;;;3.00;;
77880;SDS011;67077;50.298;18.996;2023-03-14T03:26:51;7.00;;;3.50;;
77880;SDS011;67077;50.298;18.996;2023-03-14T03:29:18;8.60;;;3.40;;
77880;SDS011;67077;50.298;18.996;2023-03-14T03:31:49;6.20;;;3.50;;
77880;SDS011;67077;50.298;18.996;2023-03-14T03:34:17;7.20;;;3.70;;
77880;SDS011;67077;50.298;18.996;2023-03-14T03:36:45;7.50;;;3.50;;
77880;SDS011;67077;50.298;18.996;2023-03-14T03:39:13;7.90;;;3.90;;
77880;SDS011;67077;50.298;18.996;2023-03-14T03:41:40;9.30;;;4.10;;
77880;SDS011;67077;50.298;18.996;2023-03-14T03:44:08;10.20;;;4.30;;
77880;SDS011;67077;50.298;18.996;2023-03-14T03:46:35;9.90;;;4.20;;
77880;SDS011;67077;50.298;18.996;2023-03-14T03:49:03;10.30;;;3.70;;
77880;SDS011;67077;50.298;18.996;2023-03-14T03:51:30;9.90;;;4.00;;
77880;SDS011;67077;50.298;18.996;2023-03-14T03:53:58;7.20;;;2.90;;
77880;SDS011;67077;50.298;18.996;2023-03-14T03:56:26;8.20;;;3.80;;
77880;SDS011;67077;50.298;18.996;2023-03-14T03:58:55;6.90;;;3.30;;
77880;SDS011;67077;50.298;18.996;2023-03-14T04:01:23;9.40;;;3.70;;
77880;SDS011;67077;50.298;18.996;2023-03-14T04:03:56;9.20;;;3.90;;
77880;SDS011;67077;50.298;18.996;2023-03-14T04:06:24;7.20;;;3.60;;
77880;SDS011;67077;50.298;18.996;2023-03-14T04:08:53;9.80;;;3.90;;
77880;SDS011;67077;50.298;18.996;2023-03-14T04:11:21;10.70;;;3.90;;
77880;SDS011;67077;50.298;18.996;2023-03-14T04:13:49;7.60;;;4.00;;
77880;SDS011;67077;50.298;18.996;2023-03-14T04:16:18;9.70;;;4.10;;
77880;SDS011;67077;50.298;18.996;2023-03-14T04:18:54;7.20;;;3.90;;
77880;SDS011;67077;50.298;18.996;2023-03-14T04:21:23;8.80;;;3.70;;
77880;SDS011;67077;50.298;18.996;2023-03-14T04:23:52;7.80;;;3.80;;
77880;SDS011;67077;50.298;18.996;2023-03-14T04:26:20;7.80;;;3.80;;
77880;SDS011;67077;50.298;18.996;2023-03-14T04:28:54;7.20;;;3.90;;
77880;SDS011;67077;50.298;18.996;2023-03-14T04:31:22;9.90;;;4.50;;
77880;SDS011;67077;50.298;18.996;2023-03-14T04:33:52;12.20;;;4.60;;
77880;SDS011;67077;50.298;18.996;2023-03-14T04:36:21;11.70;;;5.10;;
77880;SDS011;67077;50.298;18.996;2023-03-14T04:38:54;14.80;;;5.10;;
77880;SDS011;67077;50.298;18.996;2023-03-14T04:41:22;10.30;;;5.30;;
77880;SDS011;67077;50.298;18.996;2023-03-14T04:43:50;13.30;;;5.80;;
77880;SDS011;67077;50.298;18.996;2023-03-14T04:46:17;14.20;;;6.30;;
77880;SDS011;67077;50.298;18.996;2023-03-14T04:48:51;14.90;;;5.70;;
77880;SDS011;67077;50.298;18.996;2023-03-14T04:51:19;12.40;;;5.30;;
77880;SDS011;67077;50.298;18.996;2023-03-14T04:53:50;11.20;;;4.80;;
77880;SDS011;67077;50.298;18.996;2023-03-14T04:56:20;11.00;;;4.90;;
77880;SDS011;67077;50.298;18.996;2023-03-14T04:58:48;10.20;;;4.10;;
77880;SDS011;67077;50.298;18.996;2023-03-14T05:01:16;9.30;;;3.80;;
77880;SDS011;67077;50.298;18.996;2023-03-14T05:03:45;10.10;;;4.00;;
77880;SDS011;67077;50.298;18.996;2023-03-14T05:06:15;6.50;;;3.70;;
77880;SDS011;67077;50.298;18.996;2023-03-14T05:08:46;10.30;;;4.60;;
77880;SDS011;67077;50.298;18.996;2023-03-14T05:11:16;9.70;;;3.80;;
77880;SDS011;67077;50.298;18.996;2023-03-14T05:13:49;9.40;;;3.70;;
77880;SDS011;67077;50.298;18.996;2023-03-14T05:16:29;8.20;;;3.90;;
77880;SDS011;67077;50.298;18.996;2023-03-14T05:19:33;5.70;;;3.50;;
77880;SDS011;67077;50.298;18.996;2023-03-14T05:22:40;6.50;;;3.50;;
77880;SDS011;67077;50.298;18.996;2023-03-14T05:28:56;7.00;;;3.50;;
77880;SDS011;67077;50.298;18.996;2023-03-14T05:31:46;8.00;;;3.40;;
77880;SDS011;67077;50.298;18.996;2023-03-14T05:34:46;10.30;;;3.70;;
77880;SDS011;67077;50.298;18.996;2023-03-14T05:48:46;8.40;;;3.80;;
77880;SDS011;67077;50.298;18.996;2023-03-14T05:51:14;8.70;;;3.70;;
77880;SDS011;67077;50.298;18.996;2023-03-14T05:53:42;7.20;;;3.30;;
77880;SDS011;67077;50.298;18.996;2023-03-14T05:56:10;8.40;;;3.90;;
77880;SDS011;67077;50.298;18.996;2023-03-14T05:58:38;6.10;;;3.30;;
77880;SDS011;67077;50.298;18.996;2023-03-14T06:01:07;10.00;;;3.60;;
77880;SDS011;67077;50.298;18.996;2023-03-14T06:03:36;9.10;;;3.70;;
77880;SDS011;67077;50.298;18.996;2023-03-14T06:06:10;9.20;;;3.80;;
77880;SDS011;67077;50.298;18.996;2023-03-14T06:08:43;9.60;;;3.50;;
77880;SDS011;67077;50.298;18.996;2023-03-14T06:11:13;9.60;;;3.90;;
77880;SDS011;67077;50.298;18.996;2023-03-14T06:13:46;7.70;;;3.50;;
77880;SDS011;67077;50.298;18.996;2023-03-14T06:16:15;7.20;;;3.50;;
77880;SDS011;67077;50.298;18.996;2023-03-14T06:18:48;6.90;;;3.40;;
77880;SDS011;67077;50.298;18.996;2023-03-14T06:21:16;11.70;;;4.10;;
77880;SDS011;67077;50.298;18.996;2023-03-14T06:23:50;11.30;;;4.30;;
77880;SDS011;67077;50.298;18.996;2023-03-14T06:26:23;7.80;;;3.70;;
77880;SDS011;67077;50.298;18.996;2023-03-14T06:28:49;8.30;;;3.90;;
77880;SDS011;67077;50.298;18.996;2023-03-14T06:31:17;8.90;;;4.20;;
77880;SDS011;67077;50.298;18.996;2023-03-14T06:33:43;11.00;;;4.10;;
77880;SDS011;67077;50.298;18.996;2023-03-14T06:36:10;7.00;;;3.90;;
77880;SDS011;67077;50.298;18.996;2023-03-14T06:38:37;11.10;;;4.50;;
77880;SDS011;67077;50.298;18.996;2023-03-14T06:41:05;10.70;;;4.60;;
77880;SDS011;67077;50.298;18.996;2023-03-14T06:43:32;11.30;;;4.60;;
77880;SDS011;67077;50.298;18.996;2023-03-14T06:45:59;10.80;;;3.70;;
77880;SDS011;67077;50.298;18.996;2023-03-14T06:48:26;9.20;;;4.50;;
77880;SDS011;67077;50.298;18.996;2023-03-14T06:50:53;8.70;;;4.30;;
77880;SDS011;67077;50.298;18.996;2023-03-14T06:53:21;8.10;;;3.90;;
77880;SDS011;67077;50.298;18.996;2023-03-14T06:55:47;9.80;;;3.80;;
77880;SDS011;67077;50.298;18.996;2023-03-14T06:58:14;8.30;;;3.90;;
77880;SDS011;67077;50.298;18.996;2023-03-14T07:00:41;10.00;;;4.10;;
77880;SDS011;67077;50.298;18.996;2023-03-14T07:03:09;9.80;;;4.10;;
77880;SDS011;67077;50.298;18.996;2023-03-14T07:05:41;8.90;;;4.20;;
77880;SDS011;67077;50.298;18.996;2023-03-14T07:08:11;8.00;;;3.80;;
77880;SDS011;67077;50.298;18.996;2023-03-14T07:10:38;7.80;;;4.00;;
77880;SDS011;67077;50.298;18.996;2023-03-14T07:13:05;6.90;;;3.70;;
77880;SDS011;67077;50.298;18.996;2023-03-14T07:15:32;8.90;;;4.20;;
77880;SDS011;67077;50.298;18.996;2023-03-14T07:17:59;6.30;;;3.50;;
77880;SDS011;67077;50.298;18.996;2023-03-14T07:20:26;6.70;;;3.50;;
77880;SDS011;67077;50.298;18.996;2023-03-14T07:22:53;9.90;;;4.20;;
77880;SDS011;67077;50.298;18.996;2023-03-14T07:25:20;9.00;;;4.00;;
77880;SDS011;67077;50.298;18.996;2023-03-14T07:27:47;8.20;;;4.20;;
77880;SDS011;67077;50.298;18.996;2023-03-14T07:30:16;12.40;;;3.70;;
77880;SDS011;67077;50.298;18.996;2023-03-14T07:32:46;7.80;;;3.70;;
77880;SDS011;67077;50.298;18.996;2023-03-14T07:35:13;7.60;;;3.30;;
77880;SDS011;67077;50.298;18.996;2023-03-14T07:37:41;9.10;;;3.80;;
77880;SDS011;67077;50.298;18.996;2023-03-14T07:40:08;7.70;;;3.60;;
77880;SDS011;67077;50.298;18.996;2023-03-14T07:42:38;9.90;;;4.00;;
77880;SDS011;67077;50.298;18.996;2023-03-14T07:45:04;9.40;;;3.60;;
77880;SDS011;67077;50.298;18.996;2023-03-14T07:47:32;9.00;;;4.00;;
77880;SDS011;67077;50.298;18.996;2023-03-14T07:49:58;7.90;;;3.80;;
77880;SDS011;67077;50.298;18.996;2023-03-14T07:52:26;7.90;;;3.80;;
77880;SDS011;67077;50.298;18.996;2023-03-14T07:54:53;9.00;;;4.10;;
77880;SDS011;67077;50.298;18.996;2023-03-14T07:57:19;9.60;;;4.40;;
77880;SDS011;67077;50.298;18.996;2023-03-14T07:59:46;8.40;;;4.20;;
77880;SDS011;67077;50.298;18.996;2023-03-14T08:02:15;8.20;;;4.10;;
77880;SDS011;67077;50.298;18.996;2023-03-14T08:04:42;10.80;;;3.50;;
77880;SDS011;67077;50.298;18.996;2023-03-14T08:07:09;9.50;;;4.40;;
77880;SDS011;67077;50.298;18.996;2023-03-14T08:09:35;7.80;;;3.70;;
77880;SDS011;67077;50.298;18.996;2023-03-14T08:12:02;8.60;;;4.40;;
77880;SDS011;67077;50.298;18.996;2023-03-14T08:14:29;8.20;;;4.20;;
77880;SDS011;67077;50.298;18.996;2023-03-14T08:16:57;7.10;;;3.90;;
77880;SDS011;67077;50.298;18.996;2023-03-14T08:19:23;6.50;;;3.80;;
77880;SDS011;67077;50.298;18.996;2023-03-14T08:21:51;12.60;;;4.50;;
77880;SDS011;67077;50.298;18.996;2023-03-14T08:24:18;10.90;;;4.30;;
77880;SDS011;67077;50.298;18.996;2023-03-14T08:26:44;14.70;;;4.40;;
77880;SDS011;67077;50.298;18.996;2023-03-14T08:29:11;8.70;;;4.00;;
77880;SDS011;67077;50.298;18.996;2023-03-14T08:31:39;10.00;;;4.00;;
77880;SDS011;67077;50.298;18.996;2023-03-14T08:34:05;12.10;;;4.50;;
77880;SDS011;67077;50.298;18.996;2023-03-14T08:36:33;8.50;;;4.50;;
77880;SDS011;67077;50.298;18.996;2023-03-14T08:39:00;8.30;;;4.40;;
77880;SDS011;67077;50.298;18.996;2023-03-14T08:41:26;11.00;;;4.30;;
77880;SDS011;67077;50.298;18.996;2023-03-14T08:43:53;7.50;;;4.30;;
77880;SDS011;67077;50.298;18.996;2023-03-14T08:46:20;9.40;;;4.20;;
77880;SDS011;67077;50.298;18.996;2023-03-14T08:48:48;9.60;;;4.50;;
77880;SDS011;67077;50.298;18.996;2023-03-14T08:51:15;11.80;;;4.80;;
77880;SDS011;67077;50.298;18.996;2023-03-14T08:53:43;8.50;;;3.80;;
77880;SDS011;67077;50.298;18.996;2023-03-14T08:56:09;8.20;;;4.20;;
77880;SDS011;67077;50.298;18.996;2023-03-14T08:58:37;8.70;;;4.20;;
77880;SDS011;67077;50.298;18.996;2023-03-14T09:01:05;12.30;;;4.70;;
77880;SDS011;67077;50.298;18.996;2023-03-14T09:03:33;10.00;;;4.50;;
77880;SDS011;67077;50.298;18.996;2023-03-14T09:06:04;9.60;;;4.10;;
77880;SDS011;67077;50.298;18.996;2023-03-14T09:08:32;10.50;;;4.30;;
77880;SDS011;67077;50.298;18.996;2023-03-14T09:11:06;8.80;;;4.20;;
77880;SDS011;67077;50.298;18.996;2023-03-14T09:13:33;11.10;;;4.60;;
77880;SDS011;67077;50.298;18.996;2023-03-14T09:16:00;8.70;;;4.30;;
77880;SDS011;67077;50.298;18.996;2023-03-14T09:18:27;9.70;;;4.10;;
77880;SDS011;67077;50.298;18.996;2023-03-14T09:20:53;8.80;;;4.30;;
77880;SDS011;67077;50.298;18.996;2023-03-14T09:23:22;9.00;;;3.90;;
77880;SDS011;67077;50.298;18.996;2023-03-14T09:25:53;7.30;;;4.20;;
77880;SDS011;67077;50.298;18.996;2023-03-14T09:28:21;8.90;;;3.80;;
77880;SDS011;67077;50.298;18.996;2023-03-14T09:30:49;10.40;;;4.30;;
77880;SDS011;67077;50.298;18.996;2023-03-14T09:33:16;10.00;;;4.40;;
77880;SDS011;67077;50.298;18.996;2023-03-14T09:35:43;9.00;;;4.30;;
77880;SDS011;67077;50.298;18.996;2023-03-14T09:38:10;9.50;;;4.10;;
77880;SDS011;67077;50.298;18.996;2023-03-14T09:40:36;10.60;;;4.10;;
77880;SDS011;67077;50.298;18.996;2023-03-14T09:43:08;12.00;;;4.50;;
77880;SDS011;67077;50.298;18.996;2023-03-14T09:45:39;9.40;;;4.50;;
77880;SDS011;67077;50.298;18.996;2023-03-14T09:48:19;8.80;;;3.90;;
77880;SDS011;67077;50.298;18.996;2023-03-14T09:50:54;12.30;;;4.10;;
77880;SDS011;67077;50.298;18.996;2023-03-14T09:53:26;12.10;;;5.10;;
77880;SDS011;67077;50.298;18.996;2023-03-14T09:56:01;7.40;;;4.00;;
77880;SDS011;67077;50.298;18.996;2023-03-14T09:58:28;12.20;;;4.40;;
77880;SDS011;67077;50.298;18.996;2023-03-14T10:00:56;9.30;;;3.90;;
77880;SDS011;67077;50.298;18.996;2023-03-14T10:06:08;8.70;;;4.10;;
77880;SDS011;67077;50.298;18.996;2023-03-14T10:08:41;10.40;;;4.40;;
77880;SDS011;67077;50.298;18.996;2023-03-14T10:11:16;9.90;;;3.90;;
77880;SDS011;67077;50.298;18.996;2023-03-14T10:13:48;9.20;;;4.20;;
77880;SDS011;67077;50.298;18.996;2023-03-14T10:16:35;8.40;;;3.80;;
77880;SDS011;67077;50.298;18.996;2023-03-14T10:19:12;8.30;;;3.70;;
77880;SDS011;67077;50.298;18.996;2023-03-14T10:21:41;8.00;;;3.90;;
77880;SDS011;67077;50.298;18.996;2023-03-14T10:24:18;11.10;;;4.20;;
77880;SDS011;67077;50.298;18.996;2023-03-14T10:26:51;8.60;;;4.60;;
77880;SDS011;67077;50.298;18.996;2023-03-14T10:29:24;9.30;;;4.70;;
77880;SDS011;67077;50.298;18.996;2023-03-14T10:31:52;12.30;;;5.10;;
77880;SDS011;67077;50.298;18.996;2023-03-14T10:34:39;10.80;;;4.60;;
77880;SDS011;67077;50.298;18.996;2023-03-14T10:37:21;10.90;;;4.90;;
77880;SDS011;67077;50.298;18.996;2023-03-14T10:39:52;12.40;;;5.10;;
77880;SDS011;67077;50.298;18.996;2023-03-14T10:42:23;13.60;;;5.10;;
77880;SDS011;67077;50.298;18.996;2023-03-14T10:44:58;11.50;;;5.10;;
77880;SDS011;67077;50.298;18.996;2023-03-14T10:47:31;10.70;;;4.70;;
77880;SDS011;67077;50.298;18.996;2023-03-14T10:50:44;8.20;;;4.00;;
77880;SDS011;67077;50.298;18.996;2023-03-14T10:53:01;8.10;;;4.10;;
77880;SDS011;67077;50.298;18.996;2023-03-14T10:55:41;11.10;;;5.00;;
77880;SDS011;67077;50.298;18.996;2023-03-14T10:58:27;9.90;;;4.60;;
77880;SDS011;67077;50.298;18.996;2023-03-14T11:01:02;11.30;;;4.80;;
77880;SDS011;67077;50.298;18.996;2023-03-14T11:03:40;10.80;;;4.60;;
77880;SDS011;67077;50.298;18.996;2023-03-14T11:06:16;10.60;;;5.00;;
77880;SDS011;67077;50.298;18.996;2023-03-14T11:08:59;11.20;;;4.20;;
77880;SDS011;67077;50.298;18.996;2023-03-14T11:11:32;9.00;;;4.40;;
77880;SDS011;67077;50.298;18.996;2023-03-14T11:16:45;8.40;;;4.20;;
77880;SDS011;67077;50.298;18.996;2023-03-14T11:24:54;9.80;;;3.80;;
77880;SDS011;67077;50.298;18.996;2023-03-14T11:27:47;9.80;;;4.70;;
77880;SDS011;67077;50.298;18.996;2023-03-14T11:30:35;10.90;;;5.20;;
77880;SDS011;67077;50.298;18.996;2023-03-14T11:33:39;13.40;;;4.90;;
77880;SDS011;67077;50.298;18.996;2023-03-14T11:36:21;10.20;;;5.10;;
77880;SDS011;67077;50.298;18.996;2023-03-14T11:38:55;9.70;;;5.10;;
77880;SDS011;67077;50.298;18.996;2023-03-14T11:41:35;11.30;;;5.50;;
77880;SDS011;67077;50.298;18.996;2023-03-14T11:44:10;11.00;;;5.70;;
77880;SDS011;67077;50.298;18.996;2023-03-14T11:52:34;14.30;;;5.60;;
77880;SDS011;67077;50.298;18.996;2023-03-14T11:55:05;10.60;;;5.30;;
77880;SDS011;67077;50.298;18.996;2023-03-14T11:57:37;19.30;;;6.10;;
77880;SDS011;67077;50.298;18.996;2023-03-14T12:05:40;13.80;;;6.60;;
77880;SDS011;67077;50.298;18.996;2023-03-14T12:08:32;16.20;;;6.70;;
77880;SDS011;67077;50.298;18.996;2023-03-14T12:11:14;16.00;;;7.00;;
77880;SDS011;67077;50.298;18.996;2023-03-14T12:13:46;15.10;;;6.00;;
77880;SDS011;67077;50.298;18.996;2023-03-14T12:16:24;18.90;;;7.30;;
77880;SDS011;67077;50.298;18.996;2023-03-14T12:21:47;17.20;;;7.10;;
77880;SDS011;67077;50.298;18.996;2023-03-14T12:24:22;13.70;;;6.80;;
77880;SDS011;67077;50.298;18.996;2023-03-14T12:27:00;13.90;;;6.40;;
77880;SDS011;67077;50.298;18.996;2023-03-14T12:29:29;16.20;;;6.60;;
77880;SDS011;67077;50.298;18.996;2023-03-14T12:34:40;16.40;;;7.60;;
77880;SDS011;67077;50.298;18.996;2023-03-14T12:42:03;12.30;;;6.40;;
77880;SDS011;67077;50.298;18.996;2023-03-14T12:44:38;14.60;;;7.00;;
77880;SDS011;67077;50.298;18.996;2023-03-14T12:49:43;15.00;;;6.50;;
77880;SDS011;67077;50.298;18.996;2023-03-14T12:52:15;13.80;;;6.50;;
77880;SDS011;67077;50.298;18.996;2023-03-14T12:57:42;12.10;;;6.80;;
77880;SDS011;67077;50.298;18.996;2023-03-14T13:00:17;15.00;;;7.60;;
77880;SDS011;67077;50.298;18.996;2023-03-14T13:02:46;15.80;;;7.50;;
77880;SDS011;67077;50.298;18.996;2023-03-14T13:10:18;18.00;;;9.80;;
77880;SDS011;67077;50.298;18.996;2023-03-14T13:12:54;15.50;;;8.30;;
77880;SDS011;67077;50.298;18.996;2023-03-14T13:15:38;14.80;;;7.20;;
77880;SDS011;67077;50.298;18.996;2023-03-14T13:18:15;22.60;;;7.90;;
77880;SDS011;67077;50.298;18.996;2023-03-14T13:20:51;19.90;;;8.20;;
77880;SDS011;67077;50.298;18.996;2023-03-14T13:23:21;18.60;;;9.20;;
77880;SDS011;67077;50.298;18.996;2023-03-14T13:25:50;23.00;;;8.30;;
77880;SDS011;67077;50.298;18.996;2023-03-14T13:28:18;14.10;;;6.80;;
77880;SDS011;67077;50.298;18.996;2023-03-14T13:30:46;10.40;;;6.10;;
77880;SDS011;67077;50.298;18.996;2023-03-14T13:33:16;11.70;;;6.40;;
77880;SDS011;67077;50.298;18.996;2023-03-14T13:36:05;9.30;;;5.50;;
77880;SDS011;67077;50.298;18.996;2023-03-14T13:38:32;10.00;;;5.60;;
77880;SDS011;67077;50.298;18.996;2023-03-14T13:41:05;12.10;;;5.90;;
77880;SDS011;67077;50.298;18.996;2023-03-14T13:43:39;13.70;;;5.90;;
77880;SDS011;67077;50.298;18.996;2023-03-14T13:48:34;12.00;;;6.40;;
77880;SDS011;67077;50.298;18.996;2023-03-14T13:51:06;11.80;;;5.80;;
77880;SDS011;67077;50.298;18.996;2023-03-14T13:53:49;12.10;;;6.30;;
77880;SDS011;67077;50.298;18.996;2023-03-14T13:56:18;11.00;;;5.70;;
77880;SDS011;67077;50.298;18.996;2023-03-14T13:58:51;12.30;;;6.00;;
77880;SDS011;67077;50.298;18.996;2023-03-14T14:01:19;10.20;;;5.20;;
77880;SDS011;67077;50.298;18.996;2023-03-14T14:03:49;7.20;;;4.10;;
77880;SDS011;67077;50.298;18.996;2023-03-14T14:06:29;10.40;;;5.70;;
77880;SDS011;67077;50.298;18.996;2023-03-14T14:09:10;9.90;;;5.60;;
77880;SDS011;67077;50.298;18.996;2023-03-14T14:16:59;13.20;;;7.30;;
77880;SDS011;67077;50.298;18.996;2023-03-14T14:19:30;10.40;;;6.30;;
77880;SDS011;67077;50.298;18.996;2023-03-14T14:22:00;10.10;;;6.00;;
77880;SDS011;67077;50.298;18.996;2023-03-14T14:24:29;10.70;;;5.60;;
77880;SDS011;67077;50.298;18.996;2023-03-14T14:27:02;12.00;;;6.00;;
77880;SDS011;67077;50.298;18.996;2023-03-14T14:29:36;9.60;;;5.20;;
77880;SDS011;67077;50.298;18.996;2023-03-14T14:34:39;7.60;;;4.30;;
77880;SDS011;67077;50.298;18.996;2023-03-14T14:37:32;8.40;;;4.30;;
77880;SDS011;67077;50.298;18.996;2023-03-14T14:40:07;8.10;;;4.00;;
77880;SDS011;67077;50.298;18.996;2023-03-14T14:42:52;6.50;;;3.40;;
77880;SDS011;67077;50.298;18.996;2023-03-14T14:45:20;7.50;;;3.70;;
77880;SDS011;67077;50.298;18.996;2023-03-14T14:47:52;6.20;;;3.40;;
77880;SDS011;67077;50.298;18.996;2023-03-14T14:50:26;7.00;;;4.00;;
77880;SDS011;67077;50.298;18.996;2023-03-14T14:52:58;6.60;;;3.60;;
77880;SDS011;67077;50.298;18.996;2023-03-14T14:55:34;9.00;;;4.10;;
77880;SDS011;67077;50.298;18.996;2023-03-14T14:58:16;8.40;;;4.20;;
77880;SDS011;67077;50.298;18.996;2023-03-14T15:03:45;7.60;;;4.10;;
77880;SDS011;67077;50.298;18.996;2023-03-14T15:06:15;7.00;;;4.00;;
77880;SDS011;67077;50.298;18.996;2023-03-14T15:08:43;7.80;;;4.10;;
77880;SDS011;67077;50.298;18.996;2023-03-14T15:11:18;6.90;;;3.50;;
77880;SDS011;67077;50.298;18.996;2023-03-14T15:14:15;6.40;;;3.60;;
77880;SDS011;67077;50.298;18.996;2023-03-14T15:16:42;8.30;;;3.70;;
77880;SDS011;67077;50.298;18.996;2023-03-14T15:19:10;9.10;;;3.50;;
77880;SDS011;67077;50.298;18.996;2023-03-14T15:21:46;6.30;;;3.00;;
77880;SDS011;67077;50.298;18.996;2023-03-14T15:24:15;7.60;;;3.30;;
77880;SDS011;67077;50.298;18.996;2023-03-14T15:26:41;5.40;;;3.10;;
77880;SDS011;67077;50.298;18.996;2023-03-14T15:29:12;8.40;;;4.80;;
77880;SDS011;67077;50.298;18.996;2023-03-14T15:31:39;8.20;;;4.30;;
77880;SDS011;67077;50.298;18.996;2023-03-14T15:34:07;7.90;;;4.00;;
77880;SDS011;67077;50.298;18.996;2023-03-14T15:36:35;6.80;;;3.80;;
77880;SDS011;67077;50.298;18.996;2023-03-14T15:39:04;8.70;;;4.30;;
77880;SDS011;67077;50.298;18.996;2023-03-14T15:41:32;8.60;;;4.30;;
77880;SDS011;67077;50.298;18.996;2023-03-14T15:43:59;10.00;;;3.90;;
77880;SDS011;67077;50.298;18.996;2023-03-14T15:46:26;9.20;;;4.40;;
77880;SDS011;67077;50.298;18.996;2023-03-14T15:48:54;9.30;;;4.50;;
77880;SDS011;67077;50.298;18.996;2023-03-14T15:51:20;10.00;;;4.20;;
77880;SDS011;67077;50.298;18.996;2023-03-14T15:53:47;10.00;;;5.00;;
77880;SDS011;67077;50.298;18.996;2023-03-14T15:56:14;11.70;;;5.50;;
77880;SDS011;67077;50.298;18.996;2023-03-14T15:58:43;8.90;;;4.60;;
77880;SDS011;67077;50.298;18.996;2023-03-14T16:01:13;9.00;;;5.00;;
77880;SDS011;67077;50.298;18.996;2023-03-14T16:03:42;8.90;;;4.50;;
77880;SDS011;67077;50.298;18.996;2023-03-14T16:06:10;8.80;;;4.40;;
77880;SDS011;67077;50.298;18.996;2023-03-14T16:08:37;10.30;;;5.00;;
77880;SDS011;67077;50.298;18.996;2023-03-14T16:11:04;9.10;;;5.10;;
77880;SDS011;67077;50.298;18.996;2023-03-14T16:13:31;10.90;;;4.90;;
77880;SDS011;67077;50.298;18.996;2023-03-14T16:16:02;11.60;;;5.90;;
77880;SDS011;67077;50.298;18.996;2023-03-14T16:18:31;10.60;;;5.30;;
77880;SDS011;67077;50.298;18.996;2023-03-14T16:21:00;10.10;;;5.00;;
77880;SDS011;67077;50.298;18.996;2023-03-14T16:23:35;11.40;;;5.60;;